createdAt,value
2023-04-27T00:00:00.000Z,8.12
2023-04-27T00:15:00.000Z,8.17
2023-04-27T00:30:00.000Z,7.95
2023-04-27T00:45:00.000Z,7.65
2023-04-27T01:00:00.000Z,7.7
2023-04-27T01:15:00.000Z,7.52
2023-04-27T01:30:00.000Z,7.48
2023-04-27T01:45:00.000Z,7.25
2023-04-27T02:00:00.000Z,7.21
2023-04-27T02:15:00.000Z,7.44
2023-04-27T02:30:00.000Z,7.51
2023-04-27T02:45:00.000Z,7.48
2023-04-27T03:00:00.000Z,7.52
2023-04-27T03:15:00.000Z,7.51
2023-04-27T03:30:00.000Z,7.44
2023-04-27T03:45:00.000Z,7.61
2023-04-27T04:00:00.000Z,7.46
2023-04-27T04:15:00.000Z,7.54
2023-04-27T04:30:00.000Z,7.62
2023-04-27T04:45:00.000Z,7.8
2023-04-27T05:00:00.000Z,8.37
2023-04-27T05:15:00.000Z,8.69
2023-04-27T05:30:00.000Z,8.93
2023-04-27T05:45:00.000Z,8.9
2023-04-27T06:00:00.000Z,9.41
2023-04-27T06:15:00.000Z,9.71
2023-04-27T06:30:00.000Z,10.15
2023-04-27T06:45:00.000Z,11.75
2023-04-27T07:00:00.000Z,12.3
2023-04-27T07:15:00.000Z,13.87
2023-04-27T07:30:00.000Z,15.21
2023-04-27T07:45:00.000Z,14.75
2023-04-27T08:00:00.000Z,13.99
2023-04-27T08:15:00.000Z,13.88
2023-04-27T08:30:00.000Z,14.62
2023-04-27T08:45:00.000Z,16.99
2023-04-27T09:00:00.000Z,19
2023-04-27T09:15:00.000Z,18.88
2023-04-27T09:30:00.000Z,18.68
2023-04-27T09:45:00.000Z,18.63
2023-04-27T10:00:00.000Z,18.58
2023-04-27T10:15:00.000Z,18.41
2023-04-27T10:30:00.000Z,19.18
2023-04-27T10:45:00.000Z,19.06
2023-04-27T11:00:00.000Z,18.16
2023-04-27T11:15:00.000Z,17.88
2023-04-27T11:30:00.000Z,18.23
2023-04-27T11:45:00.000Z,19.35
2023-04-27T12:00:00.000Z,18.66
2023-04-27T12:15:00.000Z,18.03
2023-04-27T12:30:00.000Z,18.55
2023-04-27T12:45:00.000Z,18.91
2023-04-27T13:00:00.000Z,18.88
2023-04-27T13:15:00.000Z,18.81
2023-04-27T13:30:00.000Z,19.1
2023-04-27T13:45:00.000Z,18.37
2023-04-27T14:00:00.000Z,18.46
2023-04-27T14:15:00.000Z,18.4
2023-04-27T14:30:00.000Z,17.91
2023-04-27T14:45:00.000Z,17.79
2023-04-27T15:00:00.000Z,18.22
2023-04-27T15:15:00.000Z,18.09
2023-04-27T15:30:00.000Z,17.8
2023-04-27T15:45:00.000Z,17.67
2023-04-27T16:00:00.000Z,17.64
2023-04-27T16:15:00.000Z,17.18
2023-04-27T16:30:00.000Z,17.14
2023-04-27T16:45:00.000Z,16.8
2023-04-27T17:00:00.000Z,16.21
2023-04-27T17:15:00.000Z,16
2023-04-27T17:30:00.000Z,15.72
2023-04-27T17:45:00.000Z,15.26
2023-04-27T18:00:00.000Z,14.75
2023-04-27T18:15:00.000Z,14.64
2023-04-27T18:30:00.000Z,14.23
2023-04-27T18:45:00.000Z,14
2023-04-27T19:00:00.000Z,13.62
2023-04-27T19:15:00.000Z,13.31
2023-04-27T19:30:00.000Z,12.91
2023-04-27T19:45:00.000Z,12.62
2023-04-27T20:00:00.000Z,12.44
2023-04-27T20:15:00.000Z,12.28
2023-04-27T20:30:00.000Z,11.84
2023-04-27T20:45:00.000Z,11.6
2023-04-27T21:00:00.000Z,11.33
2023-04-27T21:15:00.000Z,10.99
2023-04-27T21:30:00.000Z,10.97
2023-04-27T21:45:00.000Z,11.11
2023-04-27T22:00:00.000Z,11.19
2023-04-27T22:15:00.000Z,11.12
2023-04-27T22:30:00.000Z,10.87
2023-04-27T22:45:00.000Z,10.76
2023-04-27T23:00:00.000Z,10.48
2023-04-27T23:15:00.000Z,10.06
2023-04-27T23:30:00.000Z,10.06
2023-04-27T23:45:00.000Z,9.98
